sensor_id;sensor_type;location;lat;lon;timestamp;P1;durP1;ratioP1;P2;durP2;ratioP2
9489;SDS011;4783;42.734;23.288;2023-03-31T07:31:20;6.25;;;5.22;;
9489;SDS011;4783;42.734;23.288;2023-03-31T07:55:26;10.43;;;4.93;;
9489;SDS011;4783;42.734;23.288;2023-03-31T08:10:41;7.88;;;4.07;;
9489;SDS011;4783;42.734;23.288;2023-03-31T08:13:06;6.13;;;4.13;;
9489;SDS011;4783;42.734;23.288;2023-03-31T08:15:31;11.07;;;4.63;;
9489;SDS011;4783;42.734;23.288;2023-03-31T08:34:41;8.90;;;3.88;;
9489;SDS011;4783;42.734;23.288;2023-03-31T08:37:07;6.68;;;3.60;;
9489;SDS011;4783;42.734;23.288;2023-03-31T08:39:33;4.45;;;3.80;;
9489;SDS011;4783;42.734;23.288;2023-03-31T08:42:03;6.47;;;4.10;;
9489;SDS011;4783;42.734;23.288;2023-03-31T08:46:56;9.18;;;3.72;;
9489;SDS011;4783;42.734;23.288;2023-03-31T08:49:22;5.97;;;3.65;;
9489;SDS011;4783;42.734;23.288;2023-03-31T08:51:55;9.63;;;4.07;;
9489;SDS011;4783;42.734;23.288;2023-03-31T08:54:40;4.97;;;3.60;;
9489;SDS011;4783;42.734;23.288;2023-03-31T08:59:59;6.10;;;2.78;;
9489;SDS011;4783;42.734;23.288;2023-03-31T09:15:16;5.22;;;3.15;;
9489;SDS011;4783;42.734;23.288;2023-03-31T09:17:46;8.98;;;3.17;;
9489;SDS011;4783;42.734;23.288;2023-03-31T09:20:22;4.40;;;3.10;;
9489;SDS011;4783;42.734;23.288;2023-03-31T09:22:51;10.27;;;3.75;;
9489;SDS011;4783;42.734;23.288;2023-03-31T09:25:22;6.85;;;3.33;;
9489;SDS011;4783;42.734;23.288;2023-03-31T09:27:49;7.25;;;3.17;;
9489;SDS011;4783;42.734;23.288;2023-03-31T09:30:18;9.82;;;3.15;;
9489;SDS011;4783;42.734;23.288;2023-03-31T09:32:45;4.00;;;2.88;;
9489;SDS011;4783;42.734;23.288;2023-03-31T09:37:37;7.60;;;3.47;;
9489;SDS011;4783;42.734;23.288;2023-03-31T09:40:03;6.75;;;3.00;;
9489;SDS011;4783;42.734;23.288;2023-03-31T09:42:32;9.13;;;3.38;;
9489;SDS011;4783;42.734;23.288;2023-03-31T09:44:57;5.63;;;3.10;;
9489;SDS011;4783;42.734;23.288;2023-03-31T09:47:33;4.57;;;3.05;;
9489;SDS011;4783;42.734;23.288;2023-03-31T09:50:03;5.65;;;3.17;;
9489;SDS011;4783;42.734;23.288;2023-03-31T09:52:29;5.13;;;3.42;;
9489;SDS011;4783;42.734;23.288;2023-03-31T09:54:55;9.43;;;3.83;;
9489;SDS011;4783;42.734;23.288;2023-03-31T10:03:01;6.68;;;3.17;;
9489;SDS011;4783;42.734;23.288;2023-03-31T10:13:21;6.55;;;3.33;;
9489;SDS011;4783;42.734;23.288;2023-03-31T10:15:47;4.13;;;2.70;;
9489;SDS011;4783;42.734;23.288;2023-03-31T10:18:16;7.90;;;3.15;;
9489;SDS011;4783;42.734;23.288;2023-03-31T10:20:43;5.95;;;2.70;;
9489;SDS011;4783;42.734;23.288;2023-03-31T10:23:16;6.75;;;3.00;;
9489;SDS011;4783;42.734;23.288;2023-03-31T10:25:42;7.45;;;2.92;;
9489;SDS011;4783;42.734;23.288;2023-03-31T10:28:11;5.93;;;3.20;;
9489;SDS011;4783;42.734;23.288;2023-03-31T10:30:39;6.47;;;2.83;;
9489;SDS011;4783;42.734;23.288;2023-03-31T10:33:10;7.05;;;3.63;;
9489;SDS011;4783;42.734;23.288;2023-03-31T10:35:37;7.72;;;3.63;;
9489;SDS011;4783;42.734;23.288;2023-03-31T10:38:05;6.65;;;3.95;;
9489;SDS011;4783;42.734;23.288;2023-03-31T10:40:31;5.95;;;3.40;;
9489;SDS011;4783;42.734;23.288;2023-03-31T10:43:01;6.93;;;3.10;;
9489;SDS011;4783;42.734;23.288;2023-03-31T10:45:35;5.35;;;3.35;;
9489;SDS011;4783;42.734;23.288;2023-03-31T10:48:00;9.70;;;3.60;;
9489;SDS011;4783;42.734;23.288;2023-03-31T10:50:30;8.75;;;3.53;;
9489;SDS011;4783;42.734;23.288;2023-03-31T10:53:16;9.32;;;3.65;;
9489;SDS011;4783;42.734;23.288;2023-03-31T10:55:45;7.30;;;3.17;;
9489;SDS011;4783;42.734;23.288;2023-03-31T11:03:29;6.65;;;3.45;;
9489;SDS011;4783;42.734;23.288;2023-03-31T11:08:32;5.68;;;3.00;;
9489;SDS011;4783;42.734;23.288;2023-03-31T11:13:53;6.05;;;3.35;;
9489;SDS011;4783;42.734;23.288;2023-03-31T11:21:45;7.25;;;3.40;;
9489;SDS011;4783;42.734;23.288;2023-03-31T11:27:24;8.57;;;3.15;;
9489;SDS011;4783;42.734;23.288;2023-03-31T11:37:34;5.45;;;3.00;;
9489;SDS011;4783;42.734;23.288;2023-03-31T11:40:18;7.25;;;3.40;;
9489;SDS011;4783;42.734;23.288;2023-03-31T11:42:53;9.60;;;3.03;;
9489;SDS011;4783;42.734;23.288;2023-03-31T11:45:36;5.75;;;3.00;;
9489;SDS011;4783;42.734;23.288;2023-03-31T11:48:04;6.72;;;3.10;;
9489;SDS011;4783;42.734;23.288;2023-03-31T11:50:31;9.10;;;3.28;;
9489;SDS011;4783;42.734;23.288;2023-03-31T11:53:02;8.90;;;3.90;;
9489;SDS011;4783;42.734;23.288;2023-03-31T11:55:29;7.07;;;3.28;;
9489;SDS011;4783;42.734;23.288;2023-03-31T12:00:23;7.57;;;3.05;;
9489;SDS011;4783;42.734;23.288;2023-03-31T12:05:23;8.43;;;3.35;;
9489;SDS011;4783;42.734;23.288;2023-03-31T12:07:56;6.18;;;3.25;;
9489;SDS011;4783;42.734;23.288;2023-03-31T12:10:30;6.10;;;2.80;;
9489;SDS011;4783;42.734;23.288;2023-03-31T12:15:41;7.50;;;2.95;;
9489;SDS011;4783;42.734;23.288;2023-03-31T12:18:12;7.10;;;3.20;;
9489;SDS011;4783;42.734;23.288;2023-03-31T12:20:41;9.27;;;3.30;;
9489;SDS011;4783;42.734;23.288;2023-03-31T12:23:11;7.65;;;3.67;;
9489;SDS011;4783;42.734;23.288;2023-03-31T12:25:44;4.45;;;3.20;;
9489;SDS011;4783;42.734;23.288;2023-03-31T12:28:12;8.68;;;3.35;;
9489;SDS011;4783;42.734;23.288;2023-03-31T12:30:38;7.13;;;3.25;;
9489;SDS011;4783;42.734;23.288;2023-03-31T12:33:15;4.75;;;2.92;;
9489;SDS011;4783;42.734;23.288;2023-03-31T12:40:48;6.87;;;2.80;;
9489;SDS011;4783;42.734;23.288;2023-03-31T12:45:54;5.60;;;2.83;;
9489;SDS011;4783;42.734;23.288;2023-03-31T12:48:36;9.02;;;2.70;;
9489;SDS011;4783;42.734;23.288;2023-03-31T12:53:49;11.18;;;3.05;;
9489;SDS011;4783;42.734;23.288;2023-03-31T12:56:18;7.95;;;2.50;;
9489;SDS011;4783;42.734;23.288;2023-03-31T12:58:45;5.88;;;3.15;;
9489;SDS011;4783;42.734;23.288;2023-03-31T13:01:20;8.38;;;2.97;;
9489;SDS011;4783;42.734;23.288;2023-03-31T13:08:53;6.65;;;2.60;;
9489;SDS011;4783;42.734;23.288;2023-03-31T13:11:20;9.60;;;2.65;;
9489;SDS011;4783;42.734;23.288;2023-03-31T13:13:52;7.13;;;2.17;;
9489;SDS011;4783;42.734;23.288;2023-03-31T13:16:21;6.07;;;2.80;;
9489;SDS011;4783;42.734;23.288;2023-03-31T13:18:50;4.65;;;2.92;;
9489;SDS011;4783;42.734;23.288;2023-03-31T13:21:16;7.22;;;2.63;;
9489;SDS011;4783;42.734;23.288;2023-03-31T13:23:42;7.05;;;2.42;;
9489;SDS011;4783;42.734;23.288;2023-03-31T13:29:16;4.55;;;2.20;;
9489;SDS011;4783;42.734;23.288;2023-03-31T13:55:59;4.30;;;2.37;;
9489;SDS011;4783;42.734;23.288;2023-03-31T13:58:08;6.60;;;2.40;;
9489;SDS011;4783;42.734;23.288;2023-03-31T14:06:03;8.55;;;2.40;;
9489;SDS011;4783;42.734;23.288;2023-03-31T14:11:19;6.38;;;2.60;;
9489;SDS011;4783;42.734;23.288;2023-03-31T14:16:44;7.85;;;2.22;;
9489;SDS011;4783;42.734;23.288;2023-03-31T14:19:30;12.30;;;2.47;;
9489;SDS011;4783;42.734;23.288;2023-03-31T14:24:45;5.15;;;2.28;;
9489;SDS011;4783;42.734;23.288;2023-03-31T14:29:58;9.82;;;2.38;;
9489;SDS011;4783;42.734;23.288;2023-03-31T14:32:42;3.35;;;2.22;;
9489;SDS011;4783;42.734;23.288;2023-03-31T14:37:47;5.43;;;2.17;;
9489;SDS011;4783;42.734;23.288;2023-03-31T14:40:13;9.38;;;2.30;;
9489;SDS011;4783;42.734;23.288;2023-03-31T14:42:40;5.07;;;2.05;;
9489;SDS011;4783;42.734;23.288;2023-03-31T14:47:41;5.28;;;2.05;;
9489;SDS011;4783;42.734;23.288;2023-03-31T14:50:16;4.95;;;2.05;;
9489;SDS011;4783;42.734;23.288;2023-03-31T14:52:49;6.25;;;1.98;;
9489;SDS011;4783;42.734;23.288;2023-03-31T14:55:15;11.55;;;2.75;;
9489;SDS011;4783;42.734;23.288;2023-03-31T14:57:41;3.85;;;1.95;;
9489;SDS011;4783;42.734;23.288;2023-03-31T15:00:07;11.48;;;2.20;;
9489;SDS011;4783;42.734;23.288;2023-03-31T15:02:36;4.05;;;2.00;;
9489;SDS011;4783;42.734;23.288;2023-03-31T15:05:05;4.45;;;1.70;;
9489;SDS011;4783;42.734;23.288;2023-03-31T15:07:32;9.60;;;3.42;;
9489;SDS011;4783;42.734;23.288;2023-03-31T15:09:58;9.15;;;2.13;;
9489;SDS011;4783;42.734;23.288;2023-03-31T15:12:23;6.35;;;2.20;;
9489;SDS011;4783;42.734;23.288;2023-03-31T15:14:49;7.72;;;2.10;;
9489;SDS011;4783;42.734;23.288;2023-03-31T15:17:18;5.47;;;1.90;;
9489;SDS011;4783;42.734;23.288;2023-03-31T15:19:44;5.15;;;2.53;;
9489;SDS011;4783;42.734;23.288;2023-03-31T15:22:10;5.32;;;2.35;;
9489;SDS011;4783;42.734;23.288;2023-03-31T15:24:38;5.32;;;2.10;;
9489;SDS011;4783;42.734;23.288;2023-03-31T15:27:04;7.47;;;2.72;;
9489;SDS011;4783;42.734;23.288;2023-03-31T15:32:13;6.88;;;4.65;;
9489;SDS011;4783;42.734;23.288;2023-03-31T15:34:40;5.32;;;2.50;;
9489;SDS011;4783;42.734;23.288;2023-03-31T15:37:07;7.10;;;2.58;;
9489;SDS011;4783;42.734;23.288;2023-03-31T15:39:32;5.43;;;2.20;;
9489;SDS011;4783;42.734;23.288;2023-03-31T15:42:00;5.95;;;2.20;;
9489;SDS011;4783;42.734;23.288;2023-03-31T15:44:37;3.63;;;2.08;;
9489;SDS011;4783;42.734;23.288;2023-03-31T15:47:10;8.80;;;2.55;;
9489;SDS011;4783;42.734;23.288;2023-03-31T15:49:36;6.75;;;2.40;;
9489;SDS011;4783;42.734;23.288;2023-03-31T15:52:01;7.63;;;2.47;;
9489;SDS011;4783;42.734;23.288;2023-03-31T15:56:59;10.93;;;2.42;;
9489;SDS011;4783;42.734;23.288;2023-03-31T15:59:25;5.80;;;2.40;;
9489;SDS011;4783;42.734;23.288;2023-03-31T16:01:51;5.05;;;2.30;;
9489;SDS011;4783;42.734;23.288;2023-03-31T16:04:17;11.15;;;2.30;;
9489;SDS011;4783;42.734;23.288;2023-03-31T16:09:13;9.95;;;2.83;;
9489;SDS011;4783;42.734;23.288;2023-03-31T16:11:41;15.85;;;4.55;;
9489;SDS011;4783;42.734;23.288;2023-03-31T16:14:10;10.27;;;6.05;;
9489;SDS011;4783;42.734;23.288;2023-03-31T16:16:37;10.15;;;3.10;;
9489;SDS011;4783;42.734;23.288;2023-03-31T16:19:03;12.48;;;3.70;;
9489;SDS011;4783;42.734;23.288;2023-03-31T16:21:33;8.68;;;2.92;;
9489;SDS011;4783;42.734;23.288;2023-03-31T16:23:59;7.07;;;4.80;;
9489;SDS011;4783;42.734;23.288;2023-03-31T16:26:26;10.52;;;3.13;;
9489;SDS011;4783;42.734;23.288;2023-03-31T16:28:52;9.32;;;3.30;;
9489;SDS011;4783;42.734;23.288;2023-03-31T16:31:29;11.60;;;3.53;;
